sensor_id;sensor_type;location;lat;lon;timestamp;P1;durP1;ratioP1;P2;durP2;ratioP2
1004;SDS011;491;53.480;10.174;2023-04-29T00:00:20;8.63;;;6.90;;
1004;SDS011;491;53.480;10.174;2023-04-29T00:02:46;10.00;;;7.17;;
1004;SDS011;491;53.480;10.174;2023-04-29T00:05:11;9.80;;;7.10;;
1004;SDS011;491;53.480;10.174;2023-04-29T00:07:37;9.87;;;7.30;;
1004;SDS011;491;53.480;10.174;2023-04-29T00:10:03;10.07;;;7.23;;
1004;SDS011;491;53.480;10.174;2023-04-29T00:12:29;8.40;;;7.50;;
1004;SDS011;491;53.480;10.174;2023-04-29T00:14:56;9.27;;;7.67;;
1004;SDS011;491;53.480;10.174;2023-04-29T00:17:21;11.37;;;7.30;;
1004;SDS011;491;53.480;10.174;2023-04-29T00:19:47;10.20;;;7.60;;
1004;SDS011;491;53.480;10.174;2023-04-29T00:22:13;13.93;;;8.20;;
1004;SDS011;491;53.480;10.174;2023-04-29T00:24:39;8.47;;;7.67;;
1004;SDS011;491;53.480;10.174;2023-04-29T00:27:04;9.40;;;7.70;;
1004;SDS011;491;53.480;10.174;2023-04-29T00:29:30;10.20;;;7.47;;
1004;SDS011;491;53.480;10.174;2023-04-29T00:31:56;11.13;;;7.13;;
1004;SDS011;491;53.480;10.174;2023-04-29T00:34:21;10.10;;;7.03;;
1004;SDS011;491;53.480;10.174;2023-04-29T00:36:47;8.20;;;6.97;;
1004;SDS011;491;53.480;10.174;2023-04-29T00:39:13;11.67;;;9.37;;
1004;SDS011;491;53.480;10.174;2023-04-29T00:41:39;11.27;;;8.00;;
1004;SDS011;491;53.480;10.174;2023-04-29T00:44:04;12.47;;;8.80;;
1004;SDS011;491;53.480;10.174;2023-04-29T00:46:30;13.23;;;7.23;;
1004;SDS011;491;53.480;10.174;2023-04-29T00:48:56;11.17;;;7.57;;
1004;SDS011;491;53.480;10.174;2023-04-29T00:51:21;10.83;;;7.27;;
1004;SDS011;491;53.480;10.174;2023-04-29T00:53:47;9.90;;;7.90;;
1004;SDS011;491;53.480;10.174;2023-04-29T00:56:13;9.63;;;7.73;;
1004;SDS011;491;53.480;10.174;2023-04-29T00:58:40;11.63;;;7.30;;
1004;SDS011;491;53.480;10.174;2023-04-29T01:01:09;8.80;;;7.70;;
1004;SDS011;491;53.480;10.174;2023-04-29T01:03:36;15.30;;;8.50;;
1004;SDS011;491;53.480;10.174;2023-04-29T01:06:15;13.73;;;8.80;;
1004;SDS011;491;53.480;10.174;2023-04-29T01:09:01;12.60;;;7.77;;
1004;SDS011;491;53.480;10.174;2023-04-29T01:12:38;10.80;;;7.80;;
1004;SDS011;491;53.480;10.174;2023-04-29T01:15:09;11.63;;;7.70;;
1004;SDS011;491;53.480;10.174;2023-04-29T01:17:57;9.63;;;7.33;;
1004;SDS011;491;53.480;10.174;2023-04-29T01:20:28;9.00;;;7.60;;
1004;SDS011;491;53.480;10.174;2023-04-29T01:22:55;9.90;;;7.57;;
1004;SDS011;491;53.480;10.174;2023-04-29T01:25:20;11.27;;;7.50;;
1004;SDS011;491;53.480;10.174;2023-04-29T01:30:16;10.57;;;7.53;;
1004;SDS011;491;53.480;10.174;2023-04-29T01:33:05;13.10;;;8.50;;
1004;SDS011;491;53.480;10.174;2023-04-29T01:38:48;13.13;;;8.93;;
1004;SDS011;491;53.480;10.174;2023-04-29T01:41:33;10.20;;;7.70;;
1004;SDS011;491;53.480;10.174;2023-04-29T01:44:07;9.90;;;8.33;;
1004;SDS011;491;53.480;10.174;2023-04-29T01:46:39;11.10;;;8.80;;
1004;SDS011;491;53.480;10.174;2023-04-29T01:49:06;9.83;;;7.80;;
1004;SDS011;491;53.480;10.174;2023-04-29T01:51:35;9.43;;;7.23;;
1004;SDS011;491;53.480;10.174;2023-04-29T01:54:01;12.07;;;9.37;;
1004;SDS011;491;53.480;10.174;2023-04-29T01:56:29;13.83;;;10.50;;
1004;SDS011;491;53.480;10.174;2023-04-29T01:58:56;11.70;;;8.80;;
1004;SDS011;491;53.480;10.174;2023-04-29T02:01:21;12.47;;;8.77;;
1004;SDS011;491;53.480;10.174;2023-04-29T02:03:47;11.00;;;8.27;;
1004;SDS011;491;53.480;10.174;2023-04-29T02:06:12;12.00;;;9.60;;
1004;SDS011;491;53.480;10.174;2023-04-29T02:08:38;13.17;;;9.40;;
1004;SDS011;491;53.480;10.174;2023-04-29T02:11:03;12.07;;;9.00;;
1004;SDS011;491;53.480;10.174;2023-04-29T02:13:29;17.83;;;9.70;;
1004;SDS011;491;53.480;10.174;2023-04-29T02:15:54;12.70;;;9.70;;
1004;SDS011;491;53.480;10.174;2023-04-29T02:18:20;13.60;;;10.60;;
1004;SDS011;491;53.480;10.174;2023-04-29T02:20:45;11.10;;;9.63;;
1004;SDS011;491;53.480;10.174;2023-04-29T02:23:11;11.10;;;9.80;;
1004;SDS011;491;53.480;10.174;2023-04-29T02:25:36;16.50;;;10.87;;
1004;SDS011;491;53.480;10.174;2023-04-29T02:28:02;11.67;;;10.20;;
1004;SDS011;491;53.480;10.174;2023-04-29T02:30:28;12.67;;;9.50;;
1004;SDS011;491;53.480;10.174;2023-04-29T02:32:54;12.87;;;10.80;;
1004;SDS011;491;53.480;10.174;2023-04-29T02:35:19;16.27;;;10.27;;
1004;SDS011;491;53.480;10.174;2023-04-29T02:37:45;15.50;;;12.37;;
1004;SDS011;491;53.480;10.174;2023-04-29T02:40:11;13.77;;;11.23;;
1004;SDS011;491;53.480;10.174;2023-04-29T02:42:36;10.67;;;9.37;;
1004;SDS011;491;53.480;10.174;2023-04-29T02:45:02;13.03;;;10.30;;
1004;SDS011;491;53.480;10.174;2023-04-29T02:47:28;13.90;;;9.80;;
1004;SDS011;491;53.480;10.174;2023-04-29T02:49:53;14.20;;;11.23;;
1004;SDS011;491;53.480;10.174;2023-04-29T02:52:19;19.10;;;12.47;;
1004;SDS011;491;53.480;10.174;2023-04-29T02:54:44;16.60;;;10.77;;
1004;SDS011;491;53.480;10.174;2023-04-29T02:57:10;13.63;;;10.17;;
1004;SDS011;491;53.480;10.174;2023-04-29T02:59:36;16.70;;;10.80;;
1004;SDS011;491;53.480;10.174;2023-04-29T03:02:04;13.67;;;10.20;;
1004;SDS011;491;53.480;10.174;2023-04-29T03:04:29;20.03;;;12.27;;
1004;SDS011;491;53.480;10.174;2023-04-29T03:06:55;14.60;;;11.27;;
1004;SDS011;491;53.480;10.174;2023-04-29T03:09:21;13.87;;;11.70;;
1004;SDS011;491;53.480;10.174;2023-04-29T03:11:47;15.73;;;9.83;;
1004;SDS011;491;53.480;10.174;2023-04-29T03:14:13;14.07;;;9.70;;
1004;SDS011;491;53.480;10.174;2023-04-29T03:16:38;14.30;;;10.93;;
1004;SDS011;491;53.480;10.174;2023-04-29T03:19:04;14.23;;;10.97;;
1004;SDS011;491;53.480;10.174;2023-04-29T03:21:29;16.27;;;9.90;;
1004;SDS011;491;53.480;10.174;2023-04-29T03:23:55;11.43;;;9.40;;
1004;SDS011;491;53.480;10.174;2023-04-29T03:26:20;11.80;;;9.93;;
1004;SDS011;491;53.480;10.174;2023-04-29T03:28:48;16.23;;;10.07;;
1004;SDS011;491;53.480;10.174;2023-04-29T03:31:13;15.00;;;9.87;;
1004;SDS011;491;53.480;10.174;2023-04-29T03:33:40;11.90;;;9.60;;
1004;SDS011;491;53.480;10.174;2023-04-29T03:36:06;11.80;;;10.00;;
1004;SDS011;491;53.480;10.174;2023-04-29T03:38:32;15.20;;;10.50;;
1004;SDS011;491;53.480;10.174;2023-04-29T03:40:58;17.63;;;10.53;;
1004;SDS011;491;53.480;10.174;2023-04-29T03:43:23;14.57;;;10.40;;
1004;SDS011;491;53.480;10.174;2023-04-29T03:45:49;13.70;;;9.80;;
1004;SDS011;491;53.480;10.174;2023-04-29T03:48:15;15.30;;;10.43;;
1004;SDS011;491;53.480;10.174;2023-04-29T03:50:40;15.80;;;10.33;;
1004;SDS011;491;53.480;10.174;2023-04-29T03:53:06;13.50;;;9.53;;
1004;SDS011;491;53.480;10.174;2023-04-29T03:55:32;15.07;;;10.00;;
1004;SDS011;491;53.480;10.174;2023-04-29T03:57:57;15.77;;;11.60;;
1004;SDS011;491;53.480;10.174;2023-04-29T04:00:23;16.23;;;11.23;;
1004;SDS011;491;53.480;10.174;2023-04-29T04:02:50;18.77;;;11.30;;
1004;SDS011;491;53.480;10.174;2023-04-29T04:05:16;18.33;;;11.90;;
1004;SDS011;491;53.480;10.174;2023-04-29T04:07:44;18.90;;;12.93;;
1004;SDS011;491;53.480;10.174;2023-04-29T04:10:10;17.73;;;12.53;;
1004;SDS011;491;53.480;10.174;2023-04-29T04:12:36;14.70;;;11.37;;
1004;SDS011;491;53.480;10.174;2023-04-29T04:15:01;13.67;;;10.90;;
1004;SDS011;491;53.480;10.174;2023-04-29T04:17:28;17.27;;;12.17;;
1004;SDS011;491;53.480;10.174;2023-04-29T04:19:53;14.17;;;10.33;;
1004;SDS011;491;53.480;10.174;2023-04-29T04:22:19;15.40;;;11.03;;
1004;SDS011;491;53.480;10.174;2023-04-29T04:24:45;18.30;;;12.30;;
1004;SDS011;491;53.480;10.174;2023-04-29T04:27:10;17.53;;;13.13;;
1004;SDS011;491;53.480;10.174;2023-04-29T04:29:36;19.07;;;11.60;;
1004;SDS011;491;53.480;10.174;2023-04-29T04:32:01;19.70;;;12.50;;
1004;SDS011;491;53.480;10.174;2023-04-29T04:34:27;19.33;;;11.83;;
1004;SDS011;491;53.480;10.174;2023-04-29T04:36:52;13.93;;;11.27;;
1004;SDS011;491;53.480;10.174;2023-04-29T04:39:18;16.43;;;10.73;;
1004;SDS011;491;53.480;10.174;2023-04-29T04:41:43;13.13;;;9.90;;
1004;SDS011;491;53.480;10.174;2023-04-29T04:44:09;13.87;;;11.03;;
1004;SDS011;491;53.480;10.174;2023-04-29T04:46:34;22.07;;;12.47;;
1004;SDS011;491;53.480;10.174;2023-04-29T04:49:00;14.17;;;9.80;;
1004;SDS011;491;53.480;10.174;2023-04-29T04:51:26;13.53;;;10.30;;
1004;SDS011;491;53.480;10.174;2023-04-29T04:53:52;16.30;;;10.40;;
1004;SDS011;491;53.480;10.174;2023-04-29T04:56:18;14.93;;;9.30;;
1004;SDS011;491;53.480;10.174;2023-04-29T04:58:43;17.40;;;11.57;;
1004;SDS011;491;53.480;10.174;2023-04-29T05:01:09;15.53;;;10.43;;
1004;SDS011;491;53.480;10.174;2023-04-29T05:03:37;13.03;;;9.70;;
1004;SDS011;491;53.480;10.174;2023-04-29T05:06:03;15.07;;;10.93;;
1004;SDS011;491;53.480;10.174;2023-04-29T05:08:28;16.97;;;11.90;;
1004;SDS011;491;53.480;10.174;2023-04-29T05:10:54;14.27;;;11.07;;
1004;SDS011;491;53.480;10.174;2023-04-29T05:13:20;13.80;;;10.40;;
1004;SDS011;491;53.480;10.174;2023-04-29T05:15:45;15.80;;;10.50;;
1004;SDS011;491;53.480;10.174;2023-04-29T05:18:11;15.23;;;11.20;;
1004;SDS011;491;53.480;10.174;2023-04-29T05:20:36;14.63;;;11.00;;
1004;SDS011;491;53.480;10.174;2023-04-29T05:23:02;15.97;;;11.60;;
1004;SDS011;491;53.480;10.174;2023-04-29T05:25:28;17.43;;;11.33;;
1004;SDS011;491;53.480;10.174;2023-04-29T05:27:53;13.37;;;10.47;;
1004;SDS011;491;53.480;10.174;2023-04-29T05:30:19;13.40;;;9.40;;
1004;SDS011;491;53.480;10.174;2023-04-29T05:32:45;16.20;;;11.43;;
1004;SDS011;491;53.480;10.174;2023-04-29T05:35:11;13.97;;;9.63;;
1004;SDS011;491;53.480;10.174;2023-04-29T05:37:36;13.57;;;9.07;;
1004;SDS011;491;53.480;10.174;2023-04-29T05:40:02;11.80;;;8.93;;
1004;SDS011;491;53.480;10.174;2023-04-29T05:42:28;11.47;;;8.90;;
1004;SDS011;491;53.480;10.174;2023-04-29T05:44:53;11.10;;;8.10;;
1004;SDS011;491;53.480;10.174;2023-04-29T05:47:19;10.13;;;8.30;;
1004;SDS011;491;53.480;10.174;2023-04-29T05:49:45;13.93;;;8.77;;
1004;SDS011;491;53.480;10.174;2023-04-29T05:52:11;13.13;;;10.13;;
1004;SDS011;491;53.480;10.174;2023-04-29T05:54:36;10.83;;;8.43;;
1004;SDS011;491;53.480;10.174;2023-04-29T05:57:02;11.47;;;8.83;;
1004;SDS011;491;53.480;10.174;2023-04-29T05:59:28;9.30;;;8.13;;
1004;SDS011;491;53.480;10.174;2023-04-29T06:01:57;10.93;;;6.90;;
1004;SDS011;491;53.480;10.174;2023-04-29T06:04:33;8.70;;;7.30;;
1004;SDS011;491;53.480;10.174;2023-04-29T06:06:58;8.50;;;6.73;;
1004;SDS011;491;53.480;10.174;2023-04-29T06:09:24;9.40;;;7.13;;
1004;SDS011;491;53.480;10.174;2023-04-29T06:11:50;8.10;;;6.77;;
1004;SDS011;491;53.480;10.174;2023-04-29T06:14:15;7.80;;;6.70;;
1004;SDS011;491;53.480;10.174;2023-04-29T06:16:41;10.47;;;6.93;;
1004;SDS011;491;53.480;10.174;2023-04-29T06:19:07;7.83;;;5.90;;
1004;SDS011;491;53.480;10.174;2023-04-29T06:21:33;6.40;;;5.47;;
1004;SDS011;491;53.480;10.174;2023-04-29T06:23:58;7.60;;;5.50;;
1004;SDS011;491;53.480;10.174;2023-04-29T06:26:24;7.30;;;4.80;;
1004;SDS011;491;53.480;10.174;2023-04-29T06:28:49;6.87;;;5.00;;
1004;SDS011;491;53.480;10.174;2023-04-29T06:31:15;7.70;;;5.30;;
1004;SDS011;491;53.480;10.174;2023-04-29T06:33:41;7.93;;;4.50;;
1004;SDS011;491;53.480;10.174;2023-04-29T06:36:10;4.93;;;4.30;;
1004;SDS011;491;53.480;10.174;2023-04-29T06:38:35;5.93;;;4.83;;
1004;SDS011;491;53.480;10.174;2023-04-29T06:41:00;8.37;;;4.33;;
1004;SDS011;491;53.480;10.174;2023-04-29T06:43:26;5.70;;;4.70;;
1004;SDS011;491;53.480;10.174;2023-04-29T06:45:52;5.90;;;4.03;;
1004;SDS011;491;53.480;10.174;2023-04-29T06:48:21;7.07;;;3.87;;
1004;SDS011;491;53.480;10.174;2023-04-29T06:53:18;6.20;;;5.20;;
1004;SDS011;491;53.480;10.174;2023-04-29T06:55:44;4.77;;;3.47;;
1004;SDS011;491;53.480;10.174;2023-04-29T06:58:13;4.73;;;4.17;;
1004;SDS011;491;53.480;10.174;2023-04-29T07:00:39;6.23;;;3.60;;
1004;SDS011;491;53.480;10.174;2023-04-29T07:03:08;6.07;;;3.70;;
1004;SDS011;491;53.480;10.174;2023-04-29T07:05:44;4.57;;;3.30;;
1004;SDS011;491;53.480;10.174;2023-04-29T07:08:10;4.03;;;3.63;;
1004;SDS011;491;53.480;10.174;2023-04-29T07:10:36;4.90;;;4.00;;
1004;SDS011;491;53.480;10.174;2023-04-29T07:13:02;5.13;;;3.70;;
1004;SDS011;491;53.480;10.174;2023-04-29T07:15:28;5.13;;;4.63;;
1004;SDS011;491;53.480;10.174;2023-04-29T07:17:57;5.23;;;4.30;;
1004;SDS011;491;53.480;10.174;2023-04-29T07:20:24;5.90;;;3.57;;
1004;SDS011;491;53.480;10.174;2023-04-29T07:22:51;5.23;;;4.43;;
1004;SDS011;491;53.480;10.174;2023-04-29T07:25:16;8.17;;;4.07;;
1004;SDS011;491;53.480;10.174;2023-04-29T07:27:42;4.77;;;3.77;;
1004;SDS011;491;53.480;10.174;2023-04-29T07:30:07;4.23;;;3.83;;
1004;SDS011;491;53.480;10.174;2023-04-29T07:32:33;5.70;;;4.63;;
1004;SDS011;491;53.480;10.174;2023-04-29T07:34:59;6.27;;;4.10;;
1004;SDS011;491;53.480;10.174;2023-04-29T07:37:24;5.90;;;3.57;;
1004;SDS011;491;53.480;10.174;2023-04-29T07:39:50;6.63;;;3.53;;
1004;SDS011;491;53.480;10.174;2023-04-29T07:42:16;4.00;;;3.50;;
1004;SDS011;491;53.480;10.174;2023-04-29T07:44:42;5.27;;;3.83;;
1004;SDS011;491;53.480;10.174;2023-04-29T07:47:09;6.63;;;3.00;;
1004;SDS011;491;53.480;10.174;2023-04-29T07:49:35;4.03;;;3.20;;
1004;SDS011;491;53.480;10.174;2023-04-29T07:52:00;5.10;;;3.23;;
1004;SDS011;491;53.480;10.174;2023-04-29T07:54:26;5.70;;;2.60;;
1004;SDS011;491;53.480;10.174;2023-04-29T07:56:51;5.03;;;3.63;;
1004;SDS011;491;53.480;10.174;2023-04-29T07:59:17;6.87;;;3.67;;
1004;SDS011;491;53.480;10.174;2023-04-29T08:01:42;6.13;;;3.30;;
1004;SDS011;491;53.480;10.174;2023-04-29T08:04:08;4.77;;;3.50;;
1004;SDS011;491;53.480;10.174;2023-04-29T08:06:34;4.90;;;3.37;;
1004;SDS011;491;53.480;10.174;2023-04-29T08:08:59;5.03;;;3.70;;
1004;SDS011;491;53.480;10.174;2023-04-29T08:11:25;3.00;;;2.33;;
1004;SDS011;491;53.480;10.174;2023-04-29T08:13:54;4.83;;;3.10;;
1004;SDS011;491;53.480;10.174;2023-04-29T08:16:22;6.47;;;3.10;;
1004;SDS011;491;53.480;10.174;2023-04-29T08:18:51;4.27;;;3.60;;
1004;SDS011;491;53.480;10.174;2023-04-29T08:21:16;4.63;;;3.13;;
1004;SDS011;491;53.480;10.174;2023-04-29T08:23:42;5.67;;;3.10;;
1004;SDS011;491;53.480;10.174;2023-04-29T08:26:08;4.53;;;2.90;;
1004;SDS011;491;53.480;10.174;2023-04-29T08:28:34;4.13;;;2.87;;
1004;SDS011;491;53.480;10.174;2023-04-29T08:31:00;6.70;;;3.90;;
1004;SDS011;491;53.480;10.174;2023-04-29T08:33:25;6.63;;;3.47;;
1004;SDS011;491;53.480;10.174;2023-04-29T08:35:58;3.07;;;2.57;;
1004;SDS011;491;53.480;10.174;2023-04-29T08:38:27;4.13;;;3.03;;
1004;SDS011;491;53.480;10.174;2023-04-29T08:40:53;5.07;;;3.33;;
1004;SDS011;491;53.480;10.174;2023-04-29T08:43:20;7.87;;;4.13;;
1004;SDS011;491;53.480;10.174;2023-04-29T08:45:46;4.27;;;2.70;;
1004;SDS011;491;53.480;10.174;2023-04-29T08:48:13;4.67;;;2.73;;
1004;SDS011;491;53.480;10.174;2023-04-29T08:50:40;5.37;;;3.47;;
1004;SDS011;491;53.480;10.174;2023-04-29T08:53:07;5.60;;;2.67;;
1004;SDS011;491;53.480;10.174;2023-04-29T08:55:34;6.60;;;2.70;;
1004;SDS011;491;53.480;10.174;2023-04-29T08:58:05;6.33;;;3.33;;
1004;SDS011;491;53.480;10.174;2023-04-29T09:00:31;5.77;;;4.50;;
1004;SDS011;491;53.480;10.174;2023-04-29T09:02:58;4.83;;;3.27;;
1004;SDS011;491;53.480;10.174;2023-04-29T09:05:26;3.43;;;2.80;;
1004;SDS011;491;53.480;10.174;2023-04-29T09:07:52;4.13;;;3.37;;
1004;SDS011;491;53.480;10.174;2023-04-29T09:10:20;3.83;;;2.70;;
1004;SDS011;491;53.480;10.174;2023-04-29T09:12:46;4.70;;;3.10;;
1004;SDS011;491;53.480;10.174;2023-04-29T09:15:12;4.27;;;3.60;;
1004;SDS011;491;53.480;10.174;2023-04-29T09:17:38;4.33;;;3.53;;
1004;SDS011;491;53.480;10.174;2023-04-29T09:22:55;4.10;;;3.17;;
1004;SDS011;491;53.480;10.174;2023-04-29T09:25:25;3.47;;;3.17;;
1004;SDS011;491;53.480;10.174;2023-04-29T09:27:51;3.10;;;2.73;;
1004;SDS011;491;53.480;10.174;2023-04-29T09:30:17;4.37;;;2.70;;
1004;SDS011;491;53.480;10.174;2023-04-29T09:32:44;2.87;;;2.67;;
1004;SDS011;491;53.480;10.174;2023-04-29T09:37:47;5.30;;;4.60;;
1004;SDS011;491;53.480;10.174;2023-04-29T09:42:57;5.07;;;4.57;;
1004;SDS011;491;53.480;10.174;2023-04-29T09:45:36;7.00;;;4.00;;
1004;SDS011;491;53.480;10.174;2023-04-29T09:48:05;5.60;;;4.67;;
1004;SDS011;491;53.480;10.174;2023-04-29T09:50:32;5.30;;;4.60;;
1004;SDS011;491;53.480;10.174;2023-04-29T09:53:01;4.40;;;4.03;;
1004;SDS011;491;53.480;10.174;2023-04-29T09:55:27;4.73;;;4.07;;
1004;SDS011;491;53.480;10.174;2023-04-29T09:57:53;4.87;;;3.97;;
1004;SDS011;491;53.480;10.174;2023-04-29T10:00:19;6.43;;;4.90;;
1004;SDS011;491;53.480;10.174;2023-04-29T10:02:46;5.00;;;4.43;;
1004;SDS011;491;53.480;10.174;2023-04-29T10:05:13;5.13;;;4.53;;
1004;SDS011;491;53.480;10.174;2023-04-29T10:07:40;5.47;;;4.63;;
1004;SDS011;491;53.480;10.174;2023-04-29T10:10:06;6.97;;;5.90;;
1004;SDS011;491;53.480;10.174;2023-04-29T10:12:35;6.00;;;5.43;;
1004;SDS011;491;53.480;10.174;2023-04-29T10:18:09;6.37;;;4.57;;
1004;SDS011;491;53.480;10.174;2023-04-29T10:20:47;4.40;;;4.00;;
1004;SDS011;491;53.480;10.174;2023-04-29T10:23:14;5.83;;;3.47;;
1004;SDS011;491;53.480;10.174;2023-04-29T10:25:41;4.83;;;4.30;;
1004;SDS011;491;53.480;10.174;2023-04-29T10:28:09;4.83;;;3.40;;
1004;SDS011;491;53.480;10.174;2023-04-29T10:30:39;7.27;;;4.50;;
1004;SDS011;491;53.480;10.174;2023-04-29T10:33:07;4.73;;;3.77;;
1004;SDS011;491;53.480;10.174;2023-04-29T10:35:35;4.40;;;3.90;;
1004;SDS011;491;53.480;10.174;2023-04-29T10:38:01;4.67;;;4.17;;
1004;SDS011;491;53.480;10.174;2023-04-29T10:40:39;4.17;;;3.33;;
1004;SDS011;491;53.480;10.174;2023-04-29T10:43:12;2.90;;;2.63;;
1004;SDS011;491;53.480;10.174;2023-04-29T10:45:39;3.87;;;2.87;;
1004;SDS011;491;53.480;10.174;2023-04-29T10:48:08;5.20;;;3.80;;
1004;SDS011;491;53.480;10.174;2023-04-29T10:53:22;3.67;;;3.27;;
1004;SDS011;491;53.480;10.174;2023-04-29T10:55:52;3.30;;;3.00;;
1004;SDS011;491;53.480;10.174;2023-04-29T11:01:05;3.50;;;3.20;;
1004;SDS011;491;53.480;10.174;2023-04-29T11:09:02;4.53;;;2.80;;
1004;SDS011;491;53.480;10.174;2023-04-29T11:14:42;6.53;;;4.00;;
1004;SDS011;491;53.480;10.174;2023-04-29T11:17:14;6.07;;;3.40;;
1004;SDS011;491;53.480;10.174;2023-04-29T11:19:45;4.30;;;3.20;;
1004;SDS011;491;53.480;10.174;2023-04-29T11:24:52;7.30;;;3.60;;
1004;SDS011;491;53.480;10.174;2023-04-29T11:27:22;6.27;;;4.67;;
1004;SDS011;491;53.480;10.174;2023-04-29T11:29:52;4.27;;;3.80;;
1004;SDS011;491;53.480;10.174;2023-04-29T11:32:22;6.87;;;4.37;;
1004;SDS011;491;53.480;10.174;2023-04-29T11:34:52;4.83;;;4.33;;
1004;SDS011;491;53.480;10.174;2023-04-29T11:37:18;4.63;;;3.93;;
1004;SDS011;491;53.480;10.174;2023-04-29T11:39:57;3.53;;;3.20;;
1004;SDS011;491;53.480;10.174;2023-04-29T11:42:25;4.23;;;3.60;;
1004;SDS011;491;53.480;10.174;2023-04-29T11:44:51;4.50;;;4.10;;
1004;SDS011;491;53.480;10.174;2023-04-29T11:47:18;3.93;;;3.53;;
1004;SDS011;491;53.480;10.174;2023-04-29T11:49:45;4.13;;;3.50;;
1004;SDS011;491;53.480;10.174;2023-04-29T11:52:11;4.87;;;3.93;;
1004;SDS011;491;53.480;10.174;2023-04-29T11:54:37;6.03;;;3.50;;
1004;SDS011;491;53.480;10.174;2023-04-29T11:57:02;4.70;;;4.23;;
1004;SDS011;491;53.480;10.174;2023-04-29T11:59:29;4.90;;;4.13;;
1004;SDS011;491;53.480;10.174;2023-04-29T12:01:56;5.87;;;3.87;;
1004;SDS011;491;53.480;10.174;2023-04-29T12:04:24;4.40;;;4.00;;
1004;SDS011;491;53.480;10.174;2023-04-29T12:06:51;6.60;;;4.57;;
1004;SDS011;491;53.480;10.174;2023-04-29T12:09:17;5.10;;;3.53;;
1004;SDS011;491;53.480;10.174;2023-04-29T12:11:43;5.50;;;4.87;;
1004;SDS011;491;53.480;10.174;2023-04-29T12:14:10;4.80;;;4.30;;
1004;SDS011;491;53.480;10.174;2023-04-29T12:16:36;5.80;;;4.87;;
1004;SDS011;491;53.480;10.174;2023-04-29T12:19:02;5.30;;;4.03;;
1004;SDS011;491;53.480;10.174;2023-04-29T12:21:28;6.83;;;3.97;;
1004;SDS011;491;53.480;10.174;2023-04-29T12:23:57;5.60;;;3.97;;
1004;SDS011;491;53.480;10.174;2023-04-29T12:26:26;4.80;;;4.10;;
1004;SDS011;491;53.480;10.174;2023-04-29T12:28:58;5.80;;;4.30;;
1004;SDS011;491;53.480;10.174;2023-04-29T12:31:32;4.43;;;3.77;;
1004;SDS011;491;53.480;10.174;2023-04-29T12:33:58;5.80;;;4.17;;
1004;SDS011;491;53.480;10.174;2023-04-29T12:36:24;3.43;;;2.80;;
1004;SDS011;491;53.480;10.174;2023-04-29T12:38:49;4.80;;;3.20;;
1004;SDS011;491;53.480;10.174;2023-04-29T12:41:18;3.77;;;2.90;;
1004;SDS011;491;53.480;10.174;2023-04-29T12:43:45;5.60;;;3.60;;
1004;SDS011;491;53.480;10.174;2023-04-29T12:46:11;3.10;;;2.57;;
1004;SDS011;491;53.480;10.174;2023-04-29T12:48:37;3.43;;;2.23;;
1004;SDS011;491;53.480;10.174;2023-04-29T12:51:07;3.83;;;2.70;;
1004;SDS011;491;53.480;10.174;2023-04-29T12:53:33;3.40;;;3.10;;
1004;SDS011;491;53.480;10.174;2023-04-29T12:55:59;4.50;;;4.10;;
1004;SDS011;491;53.480;10.174;2023-04-29T12:58:28;3.57;;;3.23;;
1004;SDS011;491;53.480;10.174;2023-04-29T13:00:55;3.40;;;2.80;;
1004;SDS011;491;53.480;10.174;2023-04-29T13:03:21;3.33;;;2.53;;
1004;SDS011;491;53.480;10.174;2023-04-29T13:05:47;4.67;;;2.30;;
1004;SDS011;491;53.480;10.174;2023-04-29T13:08:16;6.43;;;3.20;;
1004;SDS011;491;53.480;10.174;2023-04-29T13:10:42;3.30;;;2.97;;
1004;SDS011;491;53.480;10.174;2023-04-29T13:13:08;5.27;;;3.33;;
1004;SDS011;491;53.480;10.174;2023-04-29T13:15:34;3.30;;;2.70;;
1004;SDS011;491;53.480;10.174;2023-04-29T13:18:03;3.67;;;3.37;;
1004;SDS011;491;53.480;10.174;2023-04-29T13:20:29;5.97;;;2.90;;
1004;SDS011;491;53.480;10.174;2023-04-29T13:22:54;3.30;;;3.00;;
1004;SDS011;491;53.480;10.174;2023-04-29T13:25:21;4.60;;;3.33;;
1004;SDS011;491;53.480;10.174;2023-04-29T13:27:46;3.10;;;2.30;;
1004;SDS011;491;53.480;10.174;2023-04-29T13:30:13;2.97;;;2.70;;
1004;SDS011;491;53.480;10.174;2023-04-29T13:32:39;4.40;;;2.60;;
1004;SDS011;491;53.480;10.174;2023-04-29T13:35:06;3.07;;;2.77;;
1004;SDS011;491;53.480;10.174;2023-04-29T13:37:32;4.00;;;2.47;;
1004;SDS011;491;53.480;10.174;2023-04-29T13:39:58;4.73;;;3.10;;
1004;SDS011;491;53.480;10.174;2023-04-29T13:42:24;4.77;;;3.07;;
1004;SDS011;491;53.480;10.174;2023-04-29T13:44:50;5.57;;;3.03;;
1004;SDS011;491;53.480;10.174;2023-04-29T13:47:17;2.87;;;2.40;;
1004;SDS011;491;53.480;10.174;2023-04-29T13:49:43;3.70;;;3.00;;
1004;SDS011;491;53.480;10.174;2023-04-29T13:52:12;2.93;;;2.30;;
1004;SDS011;491;53.480;10.174;2023-04-29T13:54:38;5.23;;;2.50;;
1004;SDS011;491;53.480;10.174;2023-04-29T13:57:04;4.90;;;2.80;;
1004;SDS011;491;53.480;10.174;2023-04-29T13:59:30;4.50;;;2.43;;
1004;SDS011;491;53.480;10.174;2023-04-29T14:01:57;3.77;;;2.37;;
1004;SDS011;491;53.480;10.174;2023-04-29T14:04:23;4.20;;;3.03;;
1004;SDS011;491;53.480;10.174;2023-04-29T14:06:50;3.07;;;2.10;;
1004;SDS011;491;53.480;10.174;2023-04-29T14:09:16;4.27;;;2.37;;
1004;SDS011;491;53.480;10.174;2023-04-29T14:11:42;4.10;;;2.13;;
1004;SDS011;491;53.480;10.174;2023-04-29T14:14:08;1.90;;;1.00;;
1004;SDS011;491;53.480;10.174;2023-04-29T14:16:34;4.83;;;1.47;;
1004;SDS011;491;53.480;10.174;2023-04-29T14:19:00;1.67;;;1.00;;
1004;SDS011;491;53.480;10.174;2023-04-29T14:21:26;2.93;;;1.03;;
1004;SDS011;491;53.480;10.174;2023-04-29T14:23:52;4.10;;;1.50;;
1004;SDS011;491;53.480;10.174;2023-04-29T14:26:18;3.90;;;0.93;;
1004;SDS011;491;53.480;10.174;2023-04-29T14:28:44;3.00;;;0.93;;
1004;SDS011;491;53.480;10.174;2023-04-29T14:31:10;2.60;;;1.50;;
1004;SDS011;491;53.480;10.174;2023-04-29T14:33:37;3.37;;;1.80;;
1004;SDS011;491;53.480;10.174;2023-04-29T14:36:04;5.53;;;1.80;;
1004;SDS011;491;53.480;10.174;2023-04-29T14:38:31;3.50;;;1.30;;
1004;SDS011;491;53.480;10.174;2023-04-29T14:40:57;2.30;;;1.20;;
1004;SDS011;491;53.480;10.174;2023-04-29T14:43:23;2.23;;;0.63;;
1004;SDS011;491;53.480;10.174;2023-04-29T14:45:48;1.73;;;0.80;;
1004;SDS011;491;53.480;10.174;2023-04-29T14:48:14;2.83;;;0.77;;
1004;SDS011;491;53.480;10.174;2023-04-29T14:50:40;4.90;;;1.33;;
1004;SDS011;491;53.480;10.174;2023-04-29T14:53:09;2.73;;;1.57;;
1004;SDS011;491;53.480;10.174;2023-04-29T14:55:36;2.60;;;0.80;;
1004;SDS011;491;53.480;10.174;2023-04-29T14:58:02;3.40;;;1.07;;
1004;SDS011;491;53.480;10.174;2023-04-29T15:00:28;2.43;;;0.90;;
1004;SDS011;491;53.480;10.174;2023-04-29T15:02:55;1.50;;;0.80;;
1004;SDS011;491;53.480;10.174;2023-04-29T15:05:21;3.30;;;0.83;;
1004;SDS011;491;53.480;10.174;2023-04-29T15:07:47;1.93;;;0.97;;
1004;SDS011;491;53.480;10.174;2023-04-29T15:10:15;3.07;;;0.63;;
1004;SDS011;491;53.480;10.174;2023-04-29T15:12:41;3.60;;;1.50;;
1004;SDS011;491;53.480;10.174;2023-04-29T15:15:07;2.30;;;1.37;;
1004;SDS011;491;53.480;10.174;2023-04-29T15:17:33;4.60;;;1.50;;
1004;SDS011;491;53.480;10.174;2023-04-29T15:19:59;2.30;;;1.30;;
1004;SDS011;491;53.480;10.174;2023-04-29T15:22:25;2.80;;;1.57;;
1004;SDS011;491;53.480;10.174;2023-04-29T15:24:51;3.23;;;1.57;;
1004;SDS011;491;53.480;10.174;2023-04-29T15:27:17;5.20;;;1.93;;
1004;SDS011;491;53.480;10.174;2023-04-29T15:29:43;2.43;;;0.83;;
1004;SDS011;491;53.480;10.174;2023-04-29T15:32:09;1.43;;;0.60;;
1004;SDS011;491;53.480;10.174;2023-04-29T15:34:35;3.13;;;0.63;;
1004;SDS011;491;53.480;10.174;2023-04-29T15:37:01;1.00;;;0.53;;
1004;SDS011;491;53.480;10.174;2023-04-29T15:39:27;1.23;;;0.80;;
1004;SDS011;491;53.480;10.174;2023-04-29T15:41:53;1.60;;;0.30;;